createdAt,value
2019-01-14T00:02:34.694Z,98506.99
2019-01-14T00:07:56.392Z,98489.37
2019-01-14T00:10:24.820Z,98499.52
2019-01-14T00:12:53.273Z,98512.13
2019-01-14T00:15:21.940Z,98512.74
2019-01-14T00:17:50.408Z,98532.56
2019-01-14T00:20:18.841Z,98541.06
2019-01-14T00:22:47.295Z,98545.31
2019-01-14T00:25:15.721Z,98546.64
2019-01-14T00:27:44.135Z,98561.05
2019-01-14T00:30:15.467Z,98548.42
2019-01-14T00:32:43.936Z,98573.69
2019-01-14T00:35:12.722Z,98575.50
2019-01-14T00:37:41.173Z,98579.05
2019-01-14T00:40:12.882Z,98590.05
2019-01-14T00:42:42.130Z,98588.88
2019-01-14T00:45:11.598Z,98616.84
2019-01-14T00:47:40.005Z,98612.33
2019-01-14T00:50:11.374Z,98622.19
2019-01-14T00:52:39.965Z,98634.06
2019-01-14T00:55:09.755Z,98633.68
2019-01-14T00:57:38.219Z,98651.11
2019-01-14T01:00:15.443Z,98665.44
2019-01-14T01:02:43.968Z,98673.37
2019-01-14T01:05:12.959Z,98672.52
2019-01-14T01:07:41.410Z,98678.85
2019-01-14T01:10:13.533Z,98689.47
2019-01-14T01:12:41.952Z,98698.61
2019-01-14T01:15:13.626Z,98710.46
2019-01-14T01:17:42.249Z,98721.63
2019-01-14T01:20:13.989Z,98716.14
2019-01-14T01:22:42.387Z,98728.02
2019-01-14T01:25:11.870Z,98725.16
2019-01-14T01:27:40.284Z,98724.88
2019-01-14T01:30:14.772Z,98744.84
2019-01-14T01:32:43.189Z,98741.95
2019-01-14T01:35:13.230Z,98745.44
2019-01-14T01:37:42.111Z,98753.05
2019-01-14T01:40:13.622Z,98759.00
2019-01-14T01:42:42.024Z,98767.14
2019-01-14T01:45:11.433Z,98771.33
2019-01-14T01:47:39.858Z,98782.73
2019-01-14T01:50:11.334Z,98785.19
2019-01-14T01:52:39.840Z,98795.41
2019-01-14T01:55:09.789Z,98815.68
2019-01-14T01:57:38.570Z,98810.73
2019-01-14T02:00:10.433Z,98822.11
2019-01-14T02:02:38.854Z,98836.48
2019-01-14T02:05:10.008Z,98831.09
2019-01-14T02:07:38.433Z,98836.16
2019-01-14T02:10:12.962Z,98837.89
2019-01-14T02:12:41.383Z,98846.78
2019-01-14T02:15:12.456Z,98845.98
2019-01-14T02:17:42.085Z,98855.77
2019-01-14T02:20:13.488Z,98856.56
2019-01-14T02:22:41.974Z,98873.45
2019-01-14T02:25:11.536Z,98886.60
2019-01-14T02:27:39.943Z,98877.80
2019-01-14T02:30:14.144Z,98897.56
2019-01-14T02:32:42.571Z,98908.50
2019-01-14T02:35:11.150Z,98916.07
2019-01-14T02:37:39.571Z,98933.84
2019-01-14T02:40:19.292Z,98936.00
2019-01-14T02:42:47.797Z,98953.30
2019-01-14T02:45:17.269Z,98950.85
2019-01-14T02:47:45.904Z,98966.91
2019-01-14T02:50:15.645Z,98969.02
2019-01-14T02:52:44.057Z,98971.20
2019-01-14T02:55:13.005Z,98979.72
2019-01-14T02:57:42.224Z,98968.33
2019-01-14T03:00:13.902Z,98993.78
2019-01-14T03:02:42.313Z,98982.33
2019-01-14T03:05:11.272Z,98986.21
2019-01-14T03:07:39.671Z,98995.21
2019-01-14T03:10:10.631Z,99007.54
2019-01-14T03:12:39.082Z,99003.78
2019-01-14T03:15:10.733Z,99015.64
2019-01-14T03:17:39.332Z,99019.58
2019-01-14T03:20:10.893Z,99033.45
2019-01-14T03:22:39.319Z,99021.69
2019-01-14T03:25:09.209Z,99033.89
2019-01-14T03:27:37.591Z,99035.22
2019-01-14T03:30:09.678Z,99029.36
2019-01-14T03:32:38.208Z,99048.78
2019-01-14T03:35:08.248Z,99043.33
2019-01-14T03:37:36.678Z,99045.48
2019-01-14T03:40:08.387Z,99053.16
2019-01-14T03:42:36.934Z,99060.43
2019-01-14T03:45:06.696Z,99046.16
2019-01-14T03:47:35.129Z,99050.83
2019-01-14T03:50:05.135Z,99051.70
2019-01-14T03:52:33.904Z,99064.36
2019-01-14T03:55:02.655Z,99071.53
2019-01-14T03:57:31.433Z,99072.40
2019-01-14T03:59:59.856Z,99069.09
2019-01-14T04:02:28.265Z,99078.84
2019-01-14T04:04:56.692Z,99072.97
2019-01-14T04:07:25.131Z,99079.34
2019-01-14T04:09:53.544Z,99083.59
2019-01-14T04:12:21.973Z,99090.73
2019-01-14T04:14:50.408Z,99100.40
2019-01-14T04:17:18.823Z,99092.42
2019-01-14T04:19:47.327Z,99097.48
2019-01-14T04:22:15.738Z,99098.70
2019-01-14T04:24:44.158Z,99099.96
2019-01-14T04:27:12.615Z,99102.09
2019-01-14T04:29:41.043Z,99105.41
2019-01-14T04:32:09.459Z,99110.03
2019-01-14T04:34:37.925Z,99114.69
2019-01-14T04:37:06.337Z,99121.84
2019-01-14T04:39:34.808Z,99119.33
2019-01-14T04:42:03.257Z,99121.89
2019-01-14T04:44:32.087Z,99122.28
2019-01-14T04:47:00.471Z,99116.34
2019-01-14T04:49:28.932Z,99117.23
2019-01-14T04:51:57.469Z,99120.59
2019-01-14T04:54:26.026Z,99119.31
2019-01-14T04:56:54.471Z,99112.59
2019-01-14T04:59:22.923Z,99116.39
2019-01-14T05:01:51.320Z,99120.19
2019-01-14T05:04:19.745Z,99122.23
2019-01-14T05:06:48.186Z,99113.37
2019-01-14T05:09:16.587Z,99108.76
2019-01-14T05:11:44.997Z,99093.20
2019-01-14T05:14:13.562Z,99093.63
2019-01-14T05:16:41.997Z,99097.86
2019-01-14T05:19:10.514Z,99107.59
2019-01-14T05:21:38.984Z,99104.63
2019-01-14T05:24:07.402Z,99106.28
2019-01-14T05:26:35.866Z,99107.05
2019-01-14T05:29:04.336Z,99113.81
2019-01-14T05:31:33.085Z,99118.87
2019-01-14T05:34:01.509Z,99125.53
2019-01-14T05:36:29.920Z,99130.20
2019-01-14T05:38:58.381Z,99142.91
2019-01-14T05:41:26.793Z,99153.84
2019-01-14T05:43:55.197Z,99171.16
2019-01-14T05:46:23.652Z,99171.11
2019-01-14T05:48:52.320Z,99173.26
2019-01-14T05:51:20.728Z,99166.92
2019-01-14T05:53:50.798Z,99189.70
2019-01-14T05:56:19.561Z,99196.02
2019-01-14T05:58:47.987Z,99201.08
2019-01-14T06:01:16.425Z,99196.45
2019-01-14T06:03:44.846Z,99200.25
2019-01-14T06:06:13.264Z,99202.78
2019-01-14T06:08:41.715Z,99199.47
2019-01-14T06:11:10.225Z,99205.36
2019-01-14T06:13:38.650Z,99210.31
2019-01-14T06:16:07.148Z,99207.02
2019-01-14T06:18:35.702Z,99198.16
2019-01-14T06:21:04.128Z,99217.08
2019-01-14T06:23:32.578Z,99218.25
2019-01-14T06:26:01.008Z,99222.48
2019-01-14T06:28:29.418Z,99224.19
2019-01-14T06:30:57.850Z,99216.59
2019-01-14T06:33:26.291Z,99217.08
2019-01-14T06:35:54.721Z,99213.72
2019-01-14T06:38:23.148Z,99217.07
2019-01-14T06:40:51.578Z,99216.59
2019-01-14T06:43:20.052Z,99223.34
2019-01-14T06:45:48.460Z,99224.62
2019-01-14T06:48:17.742Z,99232.16
2019-01-14T06:50:46.144Z,99232.17
2019-01-14T06:53:14.568Z,99237.17
2019-01-14T06:55:42.983Z,99246.86
2019-01-14T06:58:11.505Z,99251.53
2019-01-14T07:00:39.992Z,99254.89
2019-01-14T07:03:08.405Z,99260.81
2019-01-14T07:05:36.914Z,99270.89
2019-01-14T07:08:05.335Z,99275.56
2019-01-14T07:10:33.868Z,99289.05
2019-01-14T07:13:02.338Z,99292.05
2019-01-14T07:15:30.905Z,99305.97
2019-01-14T07:17:59.476Z,99323.24
2019-01-14T07:20:27.910Z,99323.28
2019-01-14T07:22:56.313Z,99323.31
2019-01-14T07:25:24.839Z,99325.05
2019-01-14T07:27:53.250Z,99321.30
2019-01-14T07:30:23.248Z,99328.88
2019-01-14T07:32:51.673Z,99331.02
2019-01-14T07:35:20.210Z,99340.27
2019-01-14T07:37:48.968Z,99347.02
2019-01-14T07:40:19.359Z,99338.56
2019-01-14T07:42:47.906Z,99344.09
2019-01-14T07:45:18.522Z,99346.22
2019-01-14T07:47:46.894Z,99337.83
2019-01-14T07:50:17.440Z,99351.30
2019-01-14T07:52:46.028Z,99349.67
2019-01-14T07:55:14.514Z,99353.03
2019-01-14T07:57:42.969Z,99354.73
2019-01-14T08:00:23.078Z,99351.36
2019-01-14T08:02:53.033Z,99358.55
2019-01-14T08:05:21.556Z,99362.31
2019-01-14T08:07:50.218Z,99371.59
2019-01-14T08:10:18.618Z,99372.02
2019-01-14T08:12:47.506Z,99390.14
2019-01-14T08:15:18.444Z,99395.23
2019-01-14T08:17:47.814Z,99386.80
2019-01-14T08:20:16.381Z,99395.66
2019-01-14T08:22:53.965Z,99401.14
2019-01-14T08:25:24.138Z,99407.85
2019-01-14T08:27:52.683Z,99410.81
2019-01-14T08:30:23.753Z,99413.77
2019-01-14T08:32:52.550Z,99422.19
2019-01-14T08:35:21.551Z,99425.55
2019-01-14T08:37:50.199Z,99431.47
2019-01-14T08:40:19.451Z,99433.97
2019-01-14T08:42:47.883Z,99445.78
2019-01-14T08:45:16.480Z,99457.16
2019-01-14T08:47:45.181Z,99455.43
2019-01-14T08:50:16.409Z,99457.16
2019-01-14T08:52:44.920Z,99448.72
2019-01-14T08:55:13.969Z,99452.94
2019-01-14T08:57:42.565Z,99458.43
2019-01-14T09:00:19.399Z,99457.16
2019-01-14T09:02:47.882Z,99457.62
2019-01-14T09:05:17.100Z,99459.71
2019-01-14T09:07:45.669Z,99466.45
2019-01-14T09:10:18.600Z,99468.15
2019-01-14T09:12:47.092Z,99466.85
2019-01-14T09:15:17.964Z,99482.00
2019-01-14T09:17:47.154Z,99479.49
2019-01-14T09:20:18.146Z,99480.33
2019-01-14T09:22:46.905Z,99479.05
2019-01-14T09:25:15.842Z,99486.63
2019-01-14T09:27:44.384Z,99489.19
2019-01-14T09:30:18.659Z,99482.02
2019-01-14T09:32:47.933Z,99491.69
2019-01-14T09:35:16.339Z,99484.50
2019-01-14T09:37:44.894Z,99492.09
2019-01-14T09:40:16.242Z,99495.42
2019-01-14T09:42:44.726Z,99486.59
2019-01-14T09:45:14.375Z,99495.47
2019-01-14T09:47:43.269Z,99500.91
2019-01-14T09:50:14.645Z,99505.54
2019-01-14T09:52:43.301Z,99507.63
2019-01-14T09:55:14.795Z,99513.13
2019-01-14T09:57:43.208Z,99505.53
2019-01-14T10:00:11.817Z,99506.36
2019-01-14T10:02:40.883Z,99512.70
2019-01-14T10:05:12.336Z,99504.70
2019-01-14T10:07:41.360Z,99513.97
2019-01-14T10:10:12.822Z,99487.84
2019-01-14T10:12:41.371Z,99506.81
2019-01-14T10:15:12.815Z,99507.22
2019-01-14T10:17:41.652Z,99507.19
2019-01-14T10:20:12.274Z,99505.05
2019-01-14T10:22:40.761Z,99502.52
2019-01-14T10:25:11.345Z,99506.31
2019-01-14T10:27:40.372Z,99502.48
2019-01-14T10:30:11.933Z,99506.28
2019-01-14T10:32:40.349Z,99507.15
2019-01-14T10:35:09.635Z,99513.89
2019-01-14T10:37:38.278Z,99518.95
2019-01-14T10:40:09.829Z,99527.80
2019-01-14T10:42:38.261Z,99522.75
2019-01-14T10:45:21.405Z,99522.73
2019-01-14T10:47:50.132Z,99518.95
2019-01-14T10:50:19.463Z,99528.62
2019-01-14T10:52:47.944Z,99529.11
2019-01-14T10:55:16.524Z,99521.48
2019-01-14T10:57:45.252Z,99541.73
2019-01-14T11:00:24.888Z,99540.05
2019-01-14T11:02:53.457Z,99526.59
2019-01-14T11:05:28.224Z,99524.88
2019-01-14T11:07:56.649Z,99522.80
2019-01-14T11:10:25.638Z,99520.61
2019-01-14T11:12:54.077Z,99522.25
2019-01-14T11:15:24.358Z,99510.48
2019-01-14T11:17:52.793Z,99515.11
2019-01-14T11:20:24.160Z,99516.00
2019-01-14T11:22:52.676Z,99532.01
2019-01-14T11:25:21.589Z,99537.48
2019-01-14T11:27:50.104Z,99539.19
2019-01-14T11:30:24.216Z,99543.37
2019-01-14T11:32:52.644Z,99550.13
2019-01-14T11:35:21.139Z,99548.84
2019-01-14T11:37:49.645Z,99548.37
2019-01-14T11:40:23.561Z,99561.45
2019-01-14T11:42:51.975Z,99557.27
2019-01-14T11:45:20.462Z,99566.96
2019-01-14T11:47:48.964Z,99557.68
2019-01-14T11:50:18.147Z,99566.98
2019-01-14T11:52:47.494Z,99561.50
2019-01-14T11:55:16.019Z,99550.96
2019-01-14T11:57:44.498Z,99556.04
2019-01-14T12:00:21.725Z,99564.45
2019-01-14T12:02:50.307Z,99553.49
2019-01-14T12:05:18.884Z,99564.02
2019-01-14T12:07:47.364Z,99582.58
2019-01-14T12:10:16.210Z,99591.51
2019-01-14T12:12:44.804Z,99576.81
2019-01-14T12:15:16.266Z,99596.56
2019-01-14T12:17:44.748Z,99594.03
2019-01-14T12:20:15.416Z,99581.86
2019-01-14T12:22:43.961Z,99578.90
2019-01-14T12:25:12.539Z,99572.59
2019-01-14T12:27:41.023Z,99575.11
2019-01-14T12:30:15.422Z,99562.91
2019-01-14T12:32:43.832Z,99566.27
2019-01-14T12:35:12.567Z,99589.02
2019-01-14T12:37:40.982Z,99575.53
2019-01-14T12:40:12.036Z,99589.03
2019-01-14T12:42:40.603Z,99595.33
2019-01-14T12:45:12.049Z,99582.70
2019-01-14T12:47:40.484Z,99593.23
2019-01-14T12:50:14.466Z,99596.59
2019-01-14T12:52:42.881Z,99615.97
2019-01-14T12:55:15.930Z,99614.29
2019-01-14T12:57:44.467Z,99623.54
2019-01-14T13:00:19.146Z,99604.16
2019-01-14T13:02:47.670Z,99610.49
2019-01-14T13:05:17.650Z,99616.81
2019-01-14T13:07:46.090Z,99619.31
2019-01-14T13:10:15.763Z,99613.42
2019-01-14T13:12:44.555Z,99628.58
2019-01-14T13:15:27.150Z,99620.16
2019-01-14T13:17:55.566Z,99652.20
2019-01-14T13:20:24.675Z,99639.12
2019-01-14T13:22:53.125Z,99635.36
2019-01-14T13:25:21.759Z,99640.00
2019-01-14T13:27:50.721Z,99653.06
2019-01-14T13:30:24.833Z,99665.69
2019-01-14T13:32:53.669Z,99666.10
2019-01-14T13:35:22.167Z,99662.30
2019-01-14T13:37:51.454Z,99674.55
2019-01-14T13:40:20.198Z,99675.79
2019-01-14T13:42:48.730Z,99688.03
2019-01-14T13:45:22.076Z,99690.14
2019-01-14T13:47:50.958Z,99697.28
2019-01-14T13:50:21.946Z,99719.63
2019-01-14T13:52:50.420Z,99739.84
2019-01-14T13:55:20.208Z,99752.43
2019-01-14T13:57:48.780Z,99753.19
2019-01-14T14:00:22.469Z,99771.20
2019-01-14T14:02:50.974Z,99765.94
2019-01-14T14:05:19.549Z,99777.23
2019-01-14T14:07:48.016Z,99768.40
2019-01-14T14:10:22.596Z,99778.83
2019-01-14T14:12:51.055Z,99783.11
2019-01-14T14:15:20.051Z,99776.75
2019-01-14T14:17:48.499Z,99782.70
2019-01-14T14:20:19.122Z,99786.49
2019-01-14T14:22:47.873Z,99785.63
2019-01-14T14:25:16.810Z,99798.27
2019-01-14T14:27:45.288Z,99804.98
2019-01-14T14:30:19.566Z,99807.12
2019-01-14T14:32:48.023Z,99808.34
2019-01-14T14:35:16.430Z,99824.67
2019-01-14T14:37:44.867Z,99823.00
2019-01-14T14:40:13.467Z,99828.11
2019-01-14T14:42:41.957Z,99832.25
2019-01-14T14:45:12.452Z,99841.13
2019-01-14T14:47:40.943Z,99847.38
2019-01-14T14:50:12.448Z,99834.20
2019-01-14T14:52:41.750Z,99844.73
2019-01-14T14:55:10.350Z,99846.68
2019-01-14T14:57:38.826Z,99855.48
2019-01-14T15:00:12.971Z,99866.79
2019-01-14T15:02:41.472Z,99862.59
2019-01-14T15:05:11.139Z,99869.65
2019-01-14T15:07:39.568Z,99872.52
2019-01-14T15:10:10.942Z,99871.66
2019-01-14T15:12:39.441Z,99883.02
2019-01-14T15:15:10.954Z,99884.28
2019-01-14T15:17:39.408Z,99894.36
2019-01-14T15:20:13.962Z,99900.22
2019-01-14T15:22:42.530Z,99907.83
2019-01-14T15:25:11.013Z,99904.52
2019-01-14T15:27:39.494Z,99917.13
2019-01-14T15:30:13.497Z,99918.44
2019-01-14T15:32:41.964Z,99918.83
2019-01-14T15:35:10.448Z,99919.64
2019-01-14T15:37:38.892Z,99908.13
2019-01-14T15:40:10.400Z,99926.53
2019-01-14T15:42:38.830Z,99923.56
2019-01-14T15:45:10.439Z,99931.02
2019-01-14T15:47:38.863Z,99929.23
2019-01-14T15:50:09.812Z,99930.43
2019-01-14T15:52:38.315Z,99937.12
2019-01-14T15:55:12.867Z,99936.78
2019-01-14T15:57:41.359Z,99943.02
2019-01-14T16:00:15.821Z,99948.06
2019-01-14T16:02:44.706Z,99948.09
2019-01-14T16:05:13.673Z,99953.55
2019-01-14T16:07:42.148Z,99951.06
2019-01-14T16:10:19.067Z,99955.29
2019-01-14T16:12:47.594Z,99967.50
2019-01-14T16:15:16.105Z,99968.73
2019-01-14T16:17:44.966Z,99975.44
2019-01-14T16:20:15.929Z,99980.94
2019-01-14T16:22:44.625Z,99980.48
2019-01-14T16:25:13.149Z,99987.23
2019-01-14T16:27:41.619Z,99985.13
2019-01-14T16:30:13.469Z,99987.27
2019-01-14T16:32:42.777Z,99990.56
2019-01-14T16:35:11.691Z,100001.12
2019-01-14T16:37:40.334Z,100002.77
2019-01-14T16:40:09.779Z,100004.90
2019-01-14T16:42:38.282Z,100012.91
2019-01-14T16:45:15.395Z,100007.84
2019-01-14T16:47:43.922Z,100019.20
2019-01-14T16:50:14.907Z,100022.05
2019-01-14T16:52:43.477Z,100024.19
2019-01-14T16:55:13.702Z,100019.15
2019-01-14T16:57:42.135Z,100022.92
2019-01-14T17:00:20.840Z,100031.75
2019-01-14T17:02:49.313Z,100035.10
2019-01-14T17:05:18.212Z,100033.00
2019-01-14T17:07:46.755Z,100035.55
2019-01-14T17:10:16.379Z,100040.14
2019-01-14T17:12:47.925Z,100042.66
2019-01-14T17:15:16.455Z,100045.60
2019-01-14T17:17:47.491Z,100048.51
2019-01-14T17:20:19.046Z,100051.91
2019-01-14T17:22:47.972Z,100056.52
2019-01-14T17:25:16.534Z,100059.04
2019-01-14T17:27:45.360Z,100053.52
2019-01-14T17:30:16.282Z,100050.16
2019-01-14T17:32:44.896Z,100066.59
2019-01-14T17:35:14.081Z,100072.05
2019-01-14T17:37:43.057Z,100078.67
2019-01-14T17:40:17.047Z,100082.52
2019-01-14T17:42:45.429Z,100086.27
2019-01-14T17:45:14.014Z,100090.47
2019-01-14T17:47:42.977Z,100082.03
2019-01-14T17:50:16.922Z,100096.34
2019-01-14T17:52:45.954Z,100100.55
2019-01-14T17:55:14.850Z,100104.81
2019-01-14T17:57:43.409Z,100105.27
2019-01-14T18:00:20.109Z,100116.57
2019-01-14T18:02:48.629Z,100128.30
2019-01-14T18:05:21.693Z,100125.46
2019-01-14T18:07:49.881Z,100133.02
2019-01-14T18:10:19.959Z,100140.58
2019-01-14T18:12:48.770Z,100138.45
2019-01-14T18:15:17.273Z,100141.80
2019-01-14T18:17:45.735Z,100135.47
2019-01-14T18:20:16.652Z,100138.83
2019-01-14T18:22:45.353Z,100151.01
2019-01-14T18:25:15.450Z,100155.28
2019-01-14T18:27:44.125Z,100158.60
2019-01-14T18:30:15.410Z,100164.94
2019-01-14T18:32:43.901Z,100149.47
2019-01-14T18:35:12.385Z,100152.86
2019-01-14T18:37:40.856Z,100163.44
2019-01-14T18:40:11.843Z,100156.36
2019-01-14T18:42:40.355Z,100155.52
2019-01-14T18:45:12.016Z,100158.46
2019-01-14T18:47:40.433Z,100164.83
2019-01-14T18:50:12.411Z,100177.89
2019-01-14T18:52:41.007Z,100178.73
2019-01-14T18:55:09.488Z,100184.16
2019-01-14T18:57:38.027Z,100182.05
2019-01-14T19:00:12.903Z,100184.96
2019-01-14T19:02:41.337Z,100192.06
2019-01-14T19:05:10.152Z,100199.63
2019-01-14T19:07:38.598Z,100197.88
2019-01-14T19:10:09.847Z,100203.76
2019-01-14T19:12:38.802Z,100197.07
2019-01-14T19:15:10.362Z,100195.74
2019-01-14T19:17:38.827Z,100197.84
2019-01-14T19:20:12.962Z,100195.31
2019-01-14T19:22:41.376Z,100199.94
2019-01-14T19:25:09.975Z,100197.39
2019-01-14T19:27:38.484Z,100213.84
2019-01-14T19:30:09.988Z,100223.08
2019-01-14T19:32:38.772Z,100224.83
2019-01-14T19:35:07.756Z,100227.84
2019-01-14T19:37:36.222Z,100232.89
2019-01-14T19:40:10.253Z,100240.87
2019-01-14T19:42:38.897Z,100238.80
2019-01-14T19:45:09.284Z,100240.87
2019-01-14T19:47:37.793Z,100243.84
2019-01-14T19:50:12.108Z,100243.84
2019-01-14T19:52:40.631Z,100233.80
2019-01-14T19:55:09.161Z,100243.92
2019-01-14T19:57:37.598Z,100240.48
2019-01-14T20:00:18.174Z,100245.14
2019-01-14T20:02:46.667Z,100239.72
2019-01-14T20:05:15.181Z,100246.02
2019-01-14T20:07:43.689Z,100247.74
2019-01-14T20:10:15.321Z,100249.42
2019-01-14T20:12:43.894Z,100250.27
2019-01-14T20:15:15.533Z,100247.77
2019-01-14T20:17:44.038Z,100252.40
2019-01-14T20:20:12.755Z,100255.80
2019-01-14T20:22:41.189Z,100255.80
2019-01-14T20:25:11.703Z,100255.91
2019-01-14T20:27:41.374Z,100261.30
2019-01-14T20:30:19.815Z,100260.03
2019-01-14T20:32:49.053Z,100254.15
2019-01-14T20:35:17.982Z,100260.91
2019-01-14T20:37:46.719Z,100253.77
2019-01-14T20:40:16.767Z,100252.89
2019-01-14T20:42:45.422Z,100253.73
2019-01-14T20:45:16.352Z,100257.97
2019-01-14T20:47:44.874Z,100262.59
2019-01-14T20:50:18.853Z,100265.15
2019-01-14T20:52:47.577Z,100265.19
2019-01-14T20:55:16.100Z,100266.06
2019-01-14T20:57:45.846Z,100267.01
2019-01-14T21:00:23.311Z,100270.41
2019-01-14T21:02:52.279Z,100263.72
2019-01-14T21:05:22.499Z,100268.34
2019-01-14T21:07:50.998Z,100273.41
2019-01-14T21:10:19.595Z,100277.20
2019-01-14T21:12:48.381Z,100277.20
2019-01-14T21:15:16.953Z,100264.63
2019-01-14T21:17:45.537Z,100270.13
2019-01-14T21:20:17.645Z,100271.35
2019-01-14T21:22:46.211Z,100260.84
2019-01-14T21:25:14.697Z,100261.72
2019-01-14T21:27:43.592Z,100274.78
2019-01-14T21:30:18.243Z,100265.08
2019-01-14T21:32:46.924Z,100266.80
2019-01-14T21:35:15.642Z,100264.69
2019-01-14T21:37:44.987Z,100257.52
2019-01-14T21:40:14.582Z,100251.63
2019-01-14T21:42:43.412Z,100260.84
2019-01-14T21:45:13.895Z,100269.31
2019-01-14T21:47:42.340Z,100271.06
2019-01-14T21:50:24.605Z,100270.16
2019-01-14T21:52:54.665Z,100286.06
2019-01-14T21:55:23.586Z,100294.02
2019-01-14T21:57:52.018Z,100295.73
2019-01-14T22:00:22.595Z,100295.34
2019-01-14T22:02:51.051Z,100300.39
2019-01-14T22:05:19.632Z,100291.17
2019-01-14T22:07:48.214Z,100305.51
2019-01-14T22:10:19.501Z,100301.76
2019-01-14T22:12:48.294Z,100296.75
2019-01-14T22:15:16.886Z,100309.01
2019-01-14T22:17:45.558Z,100310.27
2019-01-14T22:20:22.584Z,100303.55
2019-01-14T22:22:51.017Z,100314.05
2019-01-14T22:25:19.602Z,100311.95
2019-01-14T22:27:48.103Z,100314.09
2019-01-14T22:30:22.487Z,100305.69
2019-01-14T22:32:51.337Z,100322.08
2019-01-14T22:35:20.104Z,100325.86
2019-01-14T22:37:48.635Z,100317.42
2019-01-14T22:40:17.666Z,100315.31
2019-01-14T22:42:46.150Z,100314.05
2019-01-14T22:45:14.720Z,100317.84
2019-01-14T22:47:43.267Z,100315.77
2019-01-14T22:50:17.354Z,100314.16
2019-01-14T22:52:46.346Z,100316.27
2019-01-14T22:55:15.230Z,100320.86
2019-01-14T22:57:43.830Z,100315.77
2019-01-14T23:00:33.413Z,100314.44
2019-01-14T23:03:01.923Z,100317.42
2019-01-14T23:05:30.355Z,100321.20
2019-01-14T23:07:59.070Z,100320.75
2019-01-14T23:10:27.526Z,100316.58
2019-01-14T23:12:55.962Z,100316.19
2019-01-14T23:15:24.516Z,100320.36
2019-01-14T23:17:53.084Z,100323.41
2019-01-14T23:20:21.608Z,100322.95
2019-01-14T23:22:50.352Z,100332.28
2019-01-14T23:25:19.239Z,100344.89
2019-01-14T23:27:47.668Z,100336.94
2019-01-14T23:30:16.357Z,100329.83
2019-01-14T23:32:44.915Z,100333.71
2019-01-14T23:35:13.452Z,100324.95
2019-01-14T23:37:41.916Z,100332.23
2019-01-14T23:40:10.671Z,100336.79
2019-01-14T23:42:39.184Z,100341.45
2019-01-14T23:45:11.042Z,100336.44
2019-01-14T23:47:39.503Z,100349.64
2019-01-14T23:50:09.628Z,100345.40
2019-01-14T23:52:38.039Z,100345.86
2019-01-14T23:55:07.711Z,100351.29
2019-01-14T23:57:36.247Z,100355.50
